Terminal Aerodrome Forecast
Issued by NWS

Home | Current Version | Previous Version | Text Only | Print | Product List | Glossary On
Versions: 1 2 3 4 5 6 7 8 9 10 11 12 13 14 15 16 17 18 19 20 21 22 23 24 25 26 27 28 29 30 31 32 33 34
000
FTAK31 PAFA 220029 AAB
TAFATA
TAF AMD
PATA 220029Z 2200/2224 27004KT P6SM BKN025
     FM220700 33003KT P6SM BKN040
     FM221400 VRB03KT P6SM VCFG SCT025
     FM222100 18004KT P6SM BKN100=

USA.gov is the U.S. government's official web portal to all federal, state and local government web resources and services.